createdAt,value
2022-09-28T00:04:16.727Z,10.20
2022-09-28T00:09:18.544Z,10.20
2022-09-28T00:14:21.280Z,10.30
2022-09-28T00:19:23.025Z,10.30
2022-09-28T00:24:27.709Z,10.30
2022-09-28T00:29:35.376Z,10.30
2022-09-28T00:34:40.649Z,10.40
2022-09-28T00:39:43.422Z,10.50
2022-09-28T00:44:48.034Z,10.50
2022-09-28T00:49:58.045Z,10.40
2022-09-28T00:55:01.993Z,10.40
2022-09-28T01:00:06.176Z,10.40
2022-09-28T01:05:10.402Z,10.40
2022-09-28T01:15:15.633Z,10.30
2022-09-28T01:20:32.528Z,10.40
2022-09-28T01:26:27.616Z,12.70
2022-09-28T01:31:33.639Z,10.40
2022-09-28T01:36:43.688Z,11.60
2022-09-28T01:41:49.203Z,10.60
2022-09-28T01:46:52.388Z,10.50
2022-09-28T01:52:01.152Z,10.60
2022-09-28T01:57:14.257Z,11.90
2022-09-28T02:02:22.911Z,11.10
2022-09-28T02:07:47.683Z,10.60
2022-09-28T02:12:54.474Z,10.70
2022-09-28T02:23:01.789Z,10.70
2022-09-28T02:28:10.160Z,11.40
2022-09-28T02:33:44.829Z,12.90
2022-09-28T02:38:46.578Z,10.70
2022-09-28T02:44:15.302Z,10.70
2022-09-28T02:49:50.301Z,10.70
2022-09-28T02:55:16.420Z,10.60
2022-09-28T03:00:21.283Z,10.50
2022-09-28T03:05:35.106Z,10.50
2022-09-28T03:11:03.066Z,10.70
2022-09-28T03:16:12.327Z,10.50
2022-09-28T03:21:15.258Z,10.50
2022-09-28T03:26:17.019Z,10.50
2022-09-28T03:31:18.761Z,10.60
2022-09-28T03:36:20.557Z,10.60
2022-09-28T03:41:24.246Z,13.30
2022-09-28T03:46:25.925Z,10.90
2022-09-28T03:51:27.853Z,10.90
2022-09-28T03:56:29.532Z,10.90
2022-09-28T04:01:31.411Z,12.20
2022-09-28T04:06:33.144Z,13.40
2022-09-28T04:16:57.146Z,10.60
2022-09-28T04:21:59.066Z,10.50
2022-09-28T04:27:20.730Z,10.80
2022-09-28T04:32:22.584Z,10.80
2022-09-28T04:42:26.385Z,10.90
2022-09-28T04:47:29.784Z,10.70
2022-09-28T04:52:31.508Z,13.80
2022-09-28T04:57:36.325Z,10.70
2022-09-28T05:07:41.845Z,10.80
2022-09-28T05:22:47.774Z,10.80
2022-09-28T05:32:51.692Z,10.80
2022-09-28T05:43:00.940Z,10.70
2022-09-28T05:53:08.170Z,10.80
2022-09-28T05:58:10.006Z,10.80
2022-09-28T06:03:14.055Z,10.70
2022-09-28T06:23:23.926Z,10.80
2022-09-28T06:28:26.959Z,10.80
2022-09-28T06:33:28.658Z,13.00
2022-09-28T06:43:35.053Z,11.00
2022-09-28T06:48:38.064Z,11.20
2022-09-28T06:58:41.920Z,11.00
2022-09-28T07:03:43.809Z,10.90
2022-09-28T07:14:01.854Z,10.60
2022-09-28T07:19:03.530Z,11.00
2022-09-28T07:34:14.741Z,11.10
2022-09-28T07:39:28.874Z,11.00
2022-09-28T07:49:33.239Z,11.30
2022-09-28T07:54:44.412Z,11.00
2022-09-28T08:04:49.929Z,11.40
2022-09-28T08:14:53.956Z,11.20
2022-09-28T08:20:14.480Z,11.00
2022-09-28T08:25:16.282Z,10.90
2022-09-28T08:30:17.990Z,11.20
2022-09-28T08:35:19.713Z,11.60
2022-09-28T08:40:28.260Z,11.80
2022-09-28T08:45:33.683Z,12.20
2022-09-28T08:50:47.243Z,12.60
2022-09-28T08:55:49.882Z,13.90
2022-09-28T09:06:07.739Z,12.20
2022-09-28T09:11:34.373Z,12.40
2022-09-28T09:17:00.673Z,12.80
2022-09-28T09:22:33.839Z,12.60
2022-09-28T09:27:54.454Z,12.70
2022-09-28T09:33:24.150Z,12.70
2022-09-28T09:38:43.480Z,11.90
2022-09-28T09:44:18.986Z,12.20
2022-09-28T09:49:47.113Z,12.50
2022-09-28T09:54:55.572Z,12.40
2022-09-28T10:00:00.428Z,12.80
2022-09-28T10:05:08.008Z,14.10
2022-09-28T10:10:20.481Z,12.70
2022-09-28T10:15:30.796Z,13.00
2022-09-28T10:20:37.445Z,13.80
2022-09-28T10:25:39.316Z,14.50
2022-09-28T10:30:44.433Z,13.50
2022-09-28T10:35:47.800Z,14.00
2022-09-28T10:40:54.303Z,13.60
2022-09-28T10:46:05.422Z,14.00
2022-09-28T10:51:07.787Z,13.80
2022-09-28T10:56:35.070Z,14.00
2022-09-28T11:01:36.857Z,15.80
2022-09-28T11:06:40.838Z,13.90
2022-09-28T11:11:43.899Z,13.50
2022-09-28T11:21:47.756Z,13.90
2022-09-28T11:26:52.885Z,13.40
2022-09-28T11:32:00.915Z,13.50
2022-09-28T11:37:23.999Z,14.60
2022-09-28T11:43:07.351Z,13.10
2022-09-28T11:48:13.092Z,14.50
2022-09-28T11:53:35.119Z,14.80
2022-09-28T11:58:47.984Z,14.90
2022-09-28T12:03:58.585Z,15.00
2022-09-28T12:09:18.267Z,16.40
2022-09-28T12:14:38.244Z,16.80
2022-09-28T12:19:50.609Z,16.40
2022-09-28T12:24:56.503Z,16.50
2022-09-28T12:30:22.232Z,16.60
2022-09-28T12:35:55.704Z,15.80
2022-09-28T12:41:16.755Z,15.80
2022-09-28T12:46:48.904Z,15.10
2022-09-28T12:51:59.870Z,16.40
2022-09-28T12:57:32.887Z,15.60
2022-09-28T13:02:43.652Z,15.40
2022-09-28T13:07:50.005Z,14.70
2022-09-28T13:13:03.562Z,15.10
2022-09-28T13:18:37.286Z,15.00
2022-09-28T13:24:20.742Z,15.80
2022-09-28T13:29:23.012Z,16.30
2022-09-28T13:34:30.699Z,16.30
2022-09-28T13:45:00.173Z,15.70
2022-09-28T13:50:25.626Z,16.00
2022-09-28T13:55:56.734Z,16.30
2022-09-28T14:01:12.919Z,16.60
2022-09-28T14:06:21.957Z,16.50
2022-09-28T14:11:34.318Z,17.90
2022-09-28T14:16:37.320Z,18.30
2022-09-28T14:21:53.216Z,17.80
2022-09-28T14:27:17.248Z,17.40
2022-09-28T14:32:25.301Z,16.80
2022-09-28T14:37:50.260Z,17.30
2022-09-28T14:43:28.133Z,17.30
2022-09-28T14:48:52.637Z,16.70
2022-09-28T14:54:03.807Z,16.10
2022-09-28T14:59:07.160Z,14.90
2022-09-28T15:04:12.771Z,15.40
2022-09-28T15:09:34.641Z,14.30
2022-09-28T15:15:03.111Z,14.20
2022-09-28T15:20:24.907Z,14.00
2022-09-28T15:25:32.795Z,14.50
2022-09-28T15:30:36.532Z,16.60
2022-09-28T15:35:38.730Z,15.00
2022-09-28T15:40:40.697Z,16.60
2022-09-28T15:45:44.162Z,16.70
2022-09-28T15:50:58.682Z,15.50
2022-09-28T15:56:09.789Z,14.90
2022-09-28T16:01:26.604Z,14.20
2022-09-28T16:06:28.311Z,14.00
2022-09-28T16:11:38.509Z,14.60
2022-09-28T16:16:51.771Z,13.60
2022-09-28T16:21:56.122Z,15.00
2022-09-28T16:32:25.788Z,13.50
2022-09-28T16:37:31.983Z,13.40
2022-09-28T16:42:33.722Z,13.30
2022-09-28T16:52:59.823Z,12.80
2022-09-28T16:58:04.794Z,13.20
2022-09-28T17:03:25.893Z,12.80
2022-09-28T17:08:27.919Z,12.60
2022-09-28T17:13:33.418Z,12.50
2022-09-28T17:18:37.788Z,12.50
2022-09-28T17:23:39.476Z,12.10
2022-09-28T17:33:43.356Z,11.90
2022-09-28T17:38:46.886Z,12.40
2022-09-28T17:43:49.043Z,11.60
2022-09-28T17:48:50.729Z,11.50
2022-09-28T17:53:54.336Z,11.50
2022-09-28T17:59:01.258Z,11.40
2022-09-28T18:04:05.244Z,12.10
2022-09-28T18:09:08.643Z,11.20
2022-09-28T18:14:11.317Z,11.20
2022-09-28T18:19:13.258Z,11.20
2022-09-28T18:24:15.098Z,12.20
2022-09-28T18:29:19.817Z,11.10
2022-09-28T18:34:21.517Z,12.30
2022-09-28T18:39:23.830Z,11.10
2022-09-28T18:44:25.518Z,10.90
2022-09-28T18:49:27.177Z,11.40
2022-09-28T18:54:28.903Z,10.80
2022-09-28T18:59:30.543Z,10.70
2022-09-28T19:04:32.287Z,10.70
2022-09-28T19:09:34.089Z,10.70
2022-09-28T19:19:39.654Z,10.70
2022-09-28T19:29:43.422Z,10.50
2022-09-28T19:34:45.088Z,11.20
2022-09-28T19:39:46.753Z,13.20
2022-09-28T19:44:48.582Z,13.10
2022-09-28T19:49:50.379Z,10.70
2022-09-28T19:55:00.298Z,10.40
2022-09-28T20:05:05.853Z,10.40
2022-09-28T20:15:10.599Z,10.30
2022-09-28T20:30:16.617Z,10.00
2022-09-28T20:35:30.302Z,10.00
2022-09-28T20:40:35.206Z,10.00
2022-09-28T21:00:48.246Z,9.90
2022-09-28T21:05:51.544Z,9.80
2022-09-28T21:15:55.706Z,9.80
2022-09-28T21:20:57.428Z,10.80
2022-09-28T21:26:12.971Z,9.70
2022-09-28T21:36:17.016Z,9.80
2022-09-28T21:46:21.380Z,9.70
2022-09-28T22:11:33.230Z,9.70
2022-09-28T22:26:40.378Z,9.60
2022-09-28T22:31:42.405Z,9.70
2022-09-28T22:36:44.145Z,9.80
2022-09-28T22:46:47.976Z,9.50
2022-09-28T22:51:49.869Z,12.00
2022-09-28T22:56:51.576Z,9.40
2022-09-28T23:06:55.502Z,9.40
2022-09-28T23:16:59.914Z,9.30
2022-09-28T23:22:01.670Z,9.90
2022-09-28T23:47:13.644Z,9.10
2022-09-28T23:57:17.471Z,9.00
